sensor_id;sensor_type;location;lat;lon;timestamp;P1;durP1;ratioP1;P2;durP2;ratioP2
15486;SDS011;7845;53.698;10.078;2023-02-28T00:00:46;8.40;;;4.50;;
15486;SDS011;7845;53.698;10.078;2023-02-28T00:03:12;7.20;;;3.43;;
15486;SDS011;7845;53.698;10.078;2023-02-28T00:05:37;5.93;;;2.90;;
15486;SDS011;7845;53.698;10.078;2023-02-28T00:08:03;7.20;;;3.30;;
15486;SDS011;7845;53.698;10.078;2023-02-28T00:10:31;8.80;;;3.63;;
15486;SDS011;7845;53.698;10.078;2023-02-28T00:13:03;6.27;;;3.60;;
15486;SDS011;7845;53.698;10.078;2023-02-28T00:15:30;8.63;;;4.30;;
15486;SDS011;7845;53.698;10.078;2023-02-28T00:17:56;7.87;;;4.40;;
15486;SDS011;7845;53.698;10.078;2023-02-28T00:20:24;7.40;;;4.43;;
15486;SDS011;7845;53.698;10.078;2023-02-28T00:22:52;7.83;;;4.33;;
15486;SDS011;7845;53.698;10.078;2023-02-28T00:25:19;5.90;;;3.03;;
15486;SDS011;7845;53.698;10.078;2023-02-28T00:27:47;6.13;;;2.80;;
15486;SDS011;7845;53.698;10.078;2023-02-28T00:30:15;5.10;;;2.87;;
15486;SDS011;7845;53.698;10.078;2023-02-28T00:32:42;5.70;;;2.80;;
15486;SDS011;7845;53.698;10.078;2023-02-28T00:35:09;5.80;;;2.63;;
15486;SDS011;7845;53.698;10.078;2023-02-28T00:37:35;5.70;;;2.47;;
15486;SDS011;7845;53.698;10.078;2023-02-28T00:40:01;5.17;;;2.50;;
15486;SDS011;7845;53.698;10.078;2023-02-28T00:42:31;5.63;;;2.60;;
15486;SDS011;7845;53.698;10.078;2023-02-28T00:44:57;5.17;;;2.27;;
15486;SDS011;7845;53.698;10.078;2023-02-28T00:47:22;7.00;;;3.50;;
15486;SDS011;7845;53.698;10.078;2023-02-28T00:49:47;7.90;;;4.17;;
15486;SDS011;7845;53.698;10.078;2023-02-28T00:52:13;6.97;;;3.30;;
15486;SDS011;7845;53.698;10.078;2023-02-28T00:54:40;7.30;;;2.80;;
15486;SDS011;7845;53.698;10.078;2023-02-28T00:57:05;6.43;;;3.10;;
15486;SDS011;7845;53.698;10.078;2023-02-28T00:59:31;6.07;;;3.00;;
15486;SDS011;7845;53.698;10.078;2023-02-28T01:01:56;8.60;;;4.20;;
15486;SDS011;7845;53.698;10.078;2023-02-28T01:04:22;6.20;;;3.70;;
15486;SDS011;7845;53.698;10.078;2023-02-28T01:06:47;5.87;;;3.37;;
15486;SDS011;7845;53.698;10.078;2023-02-28T01:09:13;8.93;;;3.23;;
15486;SDS011;7845;53.698;10.078;2023-02-28T01:11:38;8.70;;;3.80;;
15486;SDS011;7845;53.698;10.078;2023-02-28T01:14:06;6.50;;;2.60;;
15486;SDS011;7845;53.698;10.078;2023-02-28T01:16:33;6.53;;;2.83;;
15486;SDS011;7845;53.698;10.078;2023-02-28T01:18:58;5.20;;;2.20;;
15486;SDS011;7845;53.698;10.078;2023-02-28T01:21:24;7.97;;;3.47;;
15486;SDS011;7845;53.698;10.078;2023-02-28T01:23:50;5.67;;;2.63;;
15486;SDS011;7845;53.698;10.078;2023-02-28T01:26:17;5.33;;;2.30;;
15486;SDS011;7845;53.698;10.078;2023-02-28T01:28:47;5.10;;;2.10;;
15486;SDS011;7845;53.698;10.078;2023-02-28T01:31:16;7.07;;;3.27;;
15486;SDS011;7845;53.698;10.078;2023-02-28T01:33:43;5.20;;;3.07;;
15486;SDS011;7845;53.698;10.078;2023-02-28T01:36:17;9.33;;;5.53;;
15486;SDS011;7845;53.698;10.078;2023-02-28T01:38:45;11.73;;;2.63;;
15486;SDS011;7845;53.698;10.078;2023-02-28T01:41:17;6.30;;;2.87;;
15486;SDS011;7845;53.698;10.078;2023-02-28T01:46:11;5.17;;;2.30;;
15486;SDS011;7845;53.698;10.078;2023-02-28T01:48:38;4.83;;;2.40;;
15486;SDS011;7845;53.698;10.078;2023-02-28T01:51:11;4.87;;;2.20;;
15486;SDS011;7845;53.698;10.078;2023-02-28T01:53:45;4.23;;;2.03;;
15486;SDS011;7845;53.698;10.078;2023-02-28T01:56:15;6.67;;;3.30;;
15486;SDS011;7845;53.698;10.078;2023-02-28T01:58:48;6.10;;;3.50;;
15486;SDS011;7845;53.698;10.078;2023-02-28T02:01:16;6.50;;;3.77;;
15486;SDS011;7845;53.698;10.078;2023-02-28T02:03:47;7.60;;;3.83;;
15486;SDS011;7845;53.698;10.078;2023-02-28T02:06:20;6.40;;;3.20;;
15486;SDS011;7845;53.698;10.078;2023-02-28T02:08:50;5.53;;;2.60;;
15486;SDS011;7845;53.698;10.078;2023-02-28T02:11:18;5.57;;;2.00;;
15486;SDS011;7845;53.698;10.078;2023-02-28T02:13:59;5.07;;;2.57;;
15486;SDS011;7845;53.698;10.078;2023-02-28T02:22:07;5.30;;;2.10;;
15486;SDS011;7845;53.698;10.078;2023-02-28T02:27:16;5.80;;;2.20;;
15486;SDS011;7845;53.698;10.078;2023-02-28T02:30:08;6.20;;;2.17;;
15486;SDS011;7845;53.698;10.078;2023-02-28T02:35:43;4.63;;;1.70;;
15486;SDS011;7845;53.698;10.078;2023-02-28T02:38:20;4.33;;;1.90;;
15486;SDS011;7845;53.698;10.078;2023-02-28T02:41:04;5.27;;;1.67;;
15486;SDS011;7845;53.698;10.078;2023-02-28T02:43:46;4.67;;;1.70;;
15486;SDS011;7845;53.698;10.078;2023-02-28T02:46:34;4.70;;;1.77;;
15486;SDS011;7845;53.698;10.078;2023-02-28T02:49:04;5.80;;;1.87;;
15486;SDS011;7845;53.698;10.078;2023-02-28T02:51:33;6.60;;;2.13;;
15486;SDS011;7845;53.698;10.078;2023-02-28T02:56:54;8.60;;;3.53;;
15486;SDS011;7845;53.698;10.078;2023-02-28T02:59:22;7.50;;;3.73;;
15486;SDS011;7845;53.698;10.078;2023-02-28T03:01:51;4.80;;;2.80;;
15486;SDS011;7845;53.698;10.078;2023-02-28T03:04:20;4.43;;;2.13;;
15486;SDS011;7845;53.698;10.078;2023-02-28T03:06:48;5.30;;;2.53;;
15486;SDS011;7845;53.698;10.078;2023-02-28T03:09:18;5.33;;;2.90;;
15486;SDS011;7845;53.698;10.078;2023-02-28T03:11:43;6.20;;;2.60;;
15486;SDS011;7845;53.698;10.078;2023-02-28T03:14:21;5.00;;;2.40;;
15486;SDS011;7845;53.698;10.078;2023-02-28T03:25:08;4.50;;;1.97;;
15486;SDS011;7845;53.698;10.078;2023-02-28T03:27:41;4.43;;;1.67;;
15486;SDS011;7845;53.698;10.078;2023-02-28T03:31:00;4.23;;;1.50;;
15486;SDS011;7845;53.698;10.078;2023-02-28T03:33:24;5.53;;;1.87;;
15486;SDS011;7845;53.698;10.078;2023-02-28T03:35:55;4.10;;;1.63;;
15486;SDS011;7845;53.698;10.078;2023-02-28T03:38:38;4.57;;;1.70;;
15486;SDS011;7845;53.698;10.078;2023-02-28T03:41:06;4.63;;;1.60;;
15486;SDS011;7845;53.698;10.078;2023-02-28T03:43:39;4.70;;;1.90;;
15486;SDS011;7845;53.698;10.078;2023-02-28T03:46:09;3.50;;;1.10;;
15486;SDS011;7845;53.698;10.078;2023-02-28T03:51:09;8.67;;;3.10;;
15486;SDS011;7845;53.698;10.078;2023-02-28T03:53:42;5.80;;;2.80;;
15486;SDS011;7845;53.698;10.078;2023-02-28T03:56:27;6.47;;;3.00;;
15486;SDS011;7845;53.698;10.078;2023-02-28T03:59:01;4.93;;;2.33;;
15486;SDS011;7845;53.698;10.078;2023-02-28T04:01:40;6.50;;;1.80;;
15486;SDS011;7845;53.698;10.078;2023-02-28T04:04:09;4.80;;;1.90;;
15486;SDS011;7845;53.698;10.078;2023-02-28T04:06:35;4.10;;;1.80;;
15486;SDS011;7845;53.698;10.078;2023-02-28T04:09:01;7.03;;;2.83;;
15486;SDS011;7845;53.698;10.078;2023-02-28T04:11:44;4.77;;;1.67;;
15486;SDS011;7845;53.698;10.078;2023-02-28T04:14:14;4.50;;;1.70;;
15486;SDS011;7845;53.698;10.078;2023-02-28T04:16:40;3.93;;;1.57;;
15486;SDS011;7845;53.698;10.078;2023-02-28T04:19:07;4.13;;;1.50;;
15486;SDS011;7845;53.698;10.078;2023-02-28T04:21:35;4.20;;;1.60;;
15486;SDS011;7845;53.698;10.078;2023-02-28T04:24:06;4.23;;;1.80;;
15486;SDS011;7845;53.698;10.078;2023-02-28T04:26:36;5.50;;;2.33;;
15486;SDS011;7845;53.698;10.078;2023-02-28T04:29:05;6.77;;;2.10;;
15486;SDS011;7845;53.698;10.078;2023-02-28T04:31:31;4.20;;;1.87;;
15486;SDS011;7845;53.698;10.078;2023-02-28T04:33:57;4.50;;;1.70;;
15486;SDS011;7845;53.698;10.078;2023-02-28T04:36:23;4.27;;;1.40;;
15486;SDS011;7845;53.698;10.078;2023-02-28T04:38:48;5.00;;;1.40;;
15486;SDS011;7845;53.698;10.078;2023-02-28T04:41:14;4.30;;;1.57;;
15486;SDS011;7845;53.698;10.078;2023-02-28T04:43:40;4.57;;;1.50;;
15486;SDS011;7845;53.698;10.078;2023-02-28T04:46:06;4.40;;;1.50;;
15486;SDS011;7845;53.698;10.078;2023-02-28T04:48:34;3.83;;;1.40;;
15486;SDS011;7845;53.698;10.078;2023-02-28T04:51:01;4.30;;;1.30;;
15486;SDS011;7845;53.698;10.078;2023-02-28T04:53:28;4.53;;;1.47;;
15486;SDS011;7845;53.698;10.078;2023-02-28T04:55:54;4.40;;;1.67;;
15486;SDS011;7845;53.698;10.078;2023-02-28T04:58:20;4.83;;;1.47;;
15486;SDS011;7845;53.698;10.078;2023-02-28T05:00:48;3.57;;;1.30;;
15486;SDS011;7845;53.698;10.078;2023-02-28T05:03:13;5.23;;;2.10;;
15486;SDS011;7845;53.698;10.078;2023-02-28T05:05:38;4.10;;;1.47;;
15486;SDS011;7845;53.698;10.078;2023-02-28T05:08:04;4.60;;;1.37;;
15486;SDS011;7845;53.698;10.078;2023-02-28T05:10:30;3.90;;;1.47;;
15486;SDS011;7845;53.698;10.078;2023-02-28T05:12:56;4.33;;;1.67;;
15486;SDS011;7845;53.698;10.078;2023-02-28T05:15:22;4.03;;;1.67;;
15486;SDS011;7845;53.698;10.078;2023-02-28T05:17:47;4.10;;;1.53;;
15486;SDS011;7845;53.698;10.078;2023-02-28T05:20:13;10.20;;;2.17;;
15486;SDS011;7845;53.698;10.078;2023-02-28T05:22:39;4.60;;;1.33;;
15486;SDS011;7845;53.698;10.078;2023-02-28T05:25:05;4.33;;;1.60;;
15486;SDS011;7845;53.698;10.078;2023-02-28T05:27:31;6.13;;;2.40;;
15486;SDS011;7845;53.698;10.078;2023-02-28T05:29:57;5.60;;;2.90;;
15486;SDS011;7845;53.698;10.078;2023-02-28T05:32:23;4.20;;;1.90;;
15486;SDS011;7845;53.698;10.078;2023-02-28T05:34:49;4.47;;;1.97;;
15486;SDS011;7845;53.698;10.078;2023-02-28T05:37:14;5.70;;;2.53;;
15486;SDS011;7845;53.698;10.078;2023-02-28T05:39:42;4.60;;;1.90;;
15486;SDS011;7845;53.698;10.078;2023-02-28T05:42:07;3.97;;;1.50;;
15486;SDS011;7845;53.698;10.078;2023-02-28T05:44:34;4.00;;;1.50;;
15486;SDS011;7845;53.698;10.078;2023-02-28T05:46:59;3.97;;;1.40;;
15486;SDS011;7845;53.698;10.078;2023-02-28T05:49:25;5.03;;;1.47;;
15486;SDS011;7845;53.698;10.078;2023-02-28T05:51:50;4.90;;;1.27;;
15486;SDS011;7845;53.698;10.078;2023-02-28T05:54:16;4.00;;;1.20;;
15486;SDS011;7845;53.698;10.078;2023-02-28T05:56:41;5.13;;;1.60;;
15486;SDS011;7845;53.698;10.078;2023-02-28T05:59:09;4.17;;;1.53;;
15486;SDS011;7845;53.698;10.078;2023-02-28T06:01:41;4.03;;;1.43;;
15486;SDS011;7845;53.698;10.078;2023-02-28T06:04:16;3.57;;;1.30;;
15486;SDS011;7845;53.698;10.078;2023-02-28T06:06:47;5.03;;;1.73;;
15486;SDS011;7845;53.698;10.078;2023-02-28T06:09:13;4.07;;;1.10;;
15486;SDS011;7845;53.698;10.078;2023-02-28T06:11:39;3.90;;;1.40;;
15486;SDS011;7845;53.698;10.078;2023-02-28T06:14:04;3.77;;;1.50;;
15486;SDS011;7845;53.698;10.078;2023-02-28T06:16:31;4.17;;;1.37;;
15486;SDS011;7845;53.698;10.078;2023-02-28T06:18:58;4.00;;;1.30;;
15486;SDS011;7845;53.698;10.078;2023-02-28T06:21:25;4.53;;;1.50;;
15486;SDS011;7845;53.698;10.078;2023-02-28T06:23:55;5.07;;;1.47;;
15486;SDS011;7845;53.698;10.078;2023-02-28T06:26:21;4.07;;;1.50;;
15486;SDS011;7845;53.698;10.078;2023-02-28T06:28:46;4.30;;;1.57;;
15486;SDS011;7845;53.698;10.078;2023-02-28T06:31:18;4.87;;;1.83;;
15486;SDS011;7845;53.698;10.078;2023-02-28T06:33:45;5.03;;;2.10;;
15486;SDS011;7845;53.698;10.078;2023-02-28T06:36:12;4.17;;;1.87;;
15486;SDS011;7845;53.698;10.078;2023-02-28T06:38:41;4.47;;;1.80;;
15486;SDS011;7845;53.698;10.078;2023-02-28T06:41:07;5.20;;;2.03;;
15486;SDS011;7845;53.698;10.078;2023-02-28T06:43:35;3.80;;;1.70;;
15486;SDS011;7845;53.698;10.078;2023-02-28T06:46:03;4.80;;;2.23;;
15486;SDS011;7845;53.698;10.078;2023-02-28T06:48:31;5.50;;;1.90;;
15486;SDS011;7845;53.698;10.078;2023-02-28T06:51:03;4.70;;;2.50;;
15486;SDS011;7845;53.698;10.078;2023-02-28T06:53:32;5.30;;;1.93;;
15486;SDS011;7845;53.698;10.078;2023-02-28T06:55:58;4.87;;;1.60;;
15486;SDS011;7845;53.698;10.078;2023-02-28T06:58:23;4.53;;;1.90;;
15486;SDS011;7845;53.698;10.078;2023-02-28T07:00:52;4.30;;;2.07;;
15486;SDS011;7845;53.698;10.078;2023-02-28T07:03:17;4.30;;;1.50;;
15486;SDS011;7845;53.698;10.078;2023-02-28T07:05:44;4.17;;;1.47;;
15486;SDS011;7845;53.698;10.078;2023-02-28T07:08:10;4.03;;;1.57;;
15486;SDS011;7845;53.698;10.078;2023-02-28T07:10:38;3.40;;;1.03;;
15486;SDS011;7845;53.698;10.078;2023-02-28T07:13:05;3.73;;;1.20;;
15486;SDS011;7845;53.698;10.078;2023-02-28T07:15:32;4.90;;;1.63;;
15486;SDS011;7845;53.698;10.078;2023-02-28T07:17:57;5.10;;;2.10;;
15486;SDS011;7845;53.698;10.078;2023-02-28T07:20:23;5.47;;;2.10;;
15486;SDS011;7845;53.698;10.078;2023-02-28T07:22:49;10.53;;;2.37;;
15486;SDS011;7845;53.698;10.078;2023-02-28T07:25:21;5.90;;;1.93;;
15486;SDS011;7845;53.698;10.078;2023-02-28T07:27:48;4.70;;;2.10;;
15486;SDS011;7845;53.698;10.078;2023-02-28T07:30:13;4.23;;;1.80;;
15486;SDS011;7845;53.698;10.078;2023-02-28T07:32:39;4.70;;;1.77;;
15486;SDS011;7845;53.698;10.078;2023-02-28T07:35:05;4.37;;;2.10;;
15486;SDS011;7845;53.698;10.078;2023-02-28T07:37:30;5.03;;;1.80;;
15486;SDS011;7845;53.698;10.078;2023-02-28T07:40:05;3.80;;;1.90;;
15486;SDS011;7845;53.698;10.078;2023-02-28T07:42:33;5.70;;;2.47;;
15486;SDS011;7845;53.698;10.078;2023-02-28T07:44:59;6.07;;;2.50;;
15486;SDS011;7845;53.698;10.078;2023-02-28T07:47:26;5.70;;;3.13;;
15486;SDS011;7845;53.698;10.078;2023-02-28T07:49:51;6.80;;;3.30;;
15486;SDS011;7845;53.698;10.078;2023-02-28T07:52:16;6.47;;;2.63;;
15486;SDS011;7845;53.698;10.078;2023-02-28T07:54:42;5.93;;;2.83;;
15486;SDS011;7845;53.698;10.078;2023-02-28T07:57:07;10.00;;;4.83;;
15486;SDS011;7845;53.698;10.078;2023-02-28T07:59:33;6.53;;;3.07;;
15486;SDS011;7845;53.698;10.078;2023-02-28T08:01:58;9.57;;;4.73;;
15486;SDS011;7845;53.698;10.078;2023-02-28T08:04:24;6.27;;;3.47;;
15486;SDS011;7845;53.698;10.078;2023-02-28T08:06:51;5.67;;;2.80;;
15486;SDS011;7845;53.698;10.078;2023-02-28T08:09:19;6.20;;;2.97;;
15486;SDS011;7845;53.698;10.078;2023-02-28T08:11:45;4.60;;;2.37;;
15486;SDS011;7845;53.698;10.078;2023-02-28T08:14:10;5.60;;;2.37;;
15486;SDS011;7845;53.698;10.078;2023-02-28T08:16:35;6.37;;;2.57;;
15486;SDS011;7845;53.698;10.078;2023-02-28T08:19:01;4.40;;;1.83;;
15486;SDS011;7845;53.698;10.078;2023-02-28T08:21:27;5.80;;;2.53;;
15486;SDS011;7845;53.698;10.078;2023-02-28T08:23:52;5.43;;;2.70;;
15486;SDS011;7845;53.698;10.078;2023-02-28T08:26:18;6.67;;;3.23;;
15486;SDS011;7845;53.698;10.078;2023-02-28T08:28:44;5.60;;;2.33;;
15486;SDS011;7845;53.698;10.078;2023-02-28T08:31:10;5.90;;;2.43;;
15486;SDS011;7845;53.698;10.078;2023-02-28T08:33:38;5.53;;;2.10;;
15486;SDS011;7845;53.698;10.078;2023-02-28T08:36:04;6.13;;;2.63;;
15486;SDS011;7845;53.698;10.078;2023-02-28T08:38:30;4.20;;;1.90;;
15486;SDS011;7845;53.698;10.078;2023-02-28T08:40:57;6.80;;;2.40;;
15486;SDS011;7845;53.698;10.078;2023-02-28T08:43:26;5.80;;;2.47;;
15486;SDS011;7845;53.698;10.078;2023-02-28T08:45:57;5.53;;;1.93;;
15486;SDS011;7845;53.698;10.078;2023-02-28T08:48:23;6.80;;;2.00;;
15486;SDS011;7845;53.698;10.078;2023-02-28T08:50:58;5.20;;;2.23;;
15486;SDS011;7845;53.698;10.078;2023-02-28T08:53:25;5.87;;;2.07;;
15486;SDS011;7845;53.698;10.078;2023-02-28T08:56:04;6.50;;;1.73;;
15486;SDS011;7845;53.698;10.078;2023-02-28T08:58:32;3.57;;;1.57;;
15486;SDS011;7845;53.698;10.078;2023-02-28T09:00:59;5.80;;;1.73;;
15486;SDS011;7845;53.698;10.078;2023-02-28T09:03:25;4.27;;;1.63;;
15486;SDS011;7845;53.698;10.078;2023-02-28T09:05:55;3.83;;;1.73;;
15486;SDS011;7845;53.698;10.078;2023-02-28T09:08:23;3.57;;;1.30;;
15486;SDS011;7845;53.698;10.078;2023-02-28T09:10:51;3.63;;;1.20;;
15486;SDS011;7845;53.698;10.078;2023-02-28T09:13:17;4.90;;;1.60;;
15486;SDS011;7845;53.698;10.078;2023-02-28T09:15:43;3.83;;;1.60;;
15486;SDS011;7845;53.698;10.078;2023-02-28T09:18:09;4.40;;;1.40;;
15486;SDS011;7845;53.698;10.078;2023-02-28T09:20:36;4.87;;;1.33;;
15486;SDS011;7845;53.698;10.078;2023-02-28T09:23:03;3.40;;;1.10;;
15486;SDS011;7845;53.698;10.078;2023-02-28T09:25:28;3.07;;;1.03;;
15486;SDS011;7845;53.698;10.078;2023-02-28T09:27:54;3.77;;;0.90;;
15486;SDS011;7845;53.698;10.078;2023-02-28T09:30:19;3.50;;;1.10;;
15486;SDS011;7845;53.698;10.078;2023-02-28T09:32:44;3.40;;;0.97;;
15486;SDS011;7845;53.698;10.078;2023-02-28T09:35:17;4.97;;;1.33;;
15486;SDS011;7845;53.698;10.078;2023-02-28T09:37:43;3.60;;;1.20;;
15486;SDS011;7845;53.698;10.078;2023-02-28T09:40:10;3.90;;;1.20;;
15486;SDS011;7845;53.698;10.078;2023-02-28T09:42:37;3.57;;;1.27;;
15486;SDS011;7845;53.698;10.078;2023-02-28T09:45:05;4.30;;;1.80;;
15486;SDS011;7845;53.698;10.078;2023-02-28T09:47:40;6.07;;;1.57;;
15486;SDS011;7845;53.698;10.078;2023-02-28T09:56:10;3.60;;;1.10;;
15486;SDS011;7845;53.698;10.078;2023-02-28T09:58:51;5.17;;;1.70;;
15486;SDS011;7845;53.698;10.078;2023-02-28T10:04:15;4.60;;;1.57;;
15486;SDS011;7845;53.698;10.078;2023-02-28T10:06:50;4.90;;;1.57;;
15486;SDS011;7845;53.698;10.078;2023-02-28T10:09:19;4.90;;;2.23;;
15486;SDS011;7845;53.698;10.078;2023-02-28T10:11:56;4.60;;;1.67;;
15486;SDS011;7845;53.698;10.078;2023-02-28T10:14:28;4.73;;;1.77;;
15486;SDS011;7845;53.698;10.078;2023-02-28T10:16:56;4.60;;;2.00;;
15486;SDS011;7845;53.698;10.078;2023-02-28T10:22:02;3.70;;;1.20;;
15486;SDS011;7845;53.698;10.078;2023-02-28T10:24:30;4.10;;;1.50;;
15486;SDS011;7845;53.698;10.078;2023-02-28T10:27:00;9.07;;;1.63;;
15486;SDS011;7845;53.698;10.078;2023-02-28T10:29:31;3.50;;;0.93;;
15486;SDS011;7845;53.698;10.078;2023-02-28T10:31:59;3.87;;;1.20;;
15486;SDS011;7845;53.698;10.078;2023-02-28T10:34:27;5.23;;;0.90;;
15486;SDS011;7845;53.698;10.078;2023-02-28T10:36:52;4.60;;;1.30;;
15486;SDS011;7845;53.698;10.078;2023-02-28T10:39:35;3.43;;;1.27;;
15486;SDS011;7845;53.698;10.078;2023-02-28T10:42:02;5.60;;;2.60;;
15486;SDS011;7845;53.698;10.078;2023-02-28T10:44:28;4.30;;;1.27;;
15486;SDS011;7845;53.698;10.078;2023-02-28T10:46:53;4.37;;;1.20;;
15486;SDS011;7845;53.698;10.078;2023-02-28T10:51:49;3.50;;;1.10;;
15486;SDS011;7845;53.698;10.078;2023-02-28T10:54:19;3.53;;;0.90;;
15486;SDS011;7845;53.698;10.078;2023-02-28T10:57:05;3.27;;;0.83;;
15486;SDS011;7845;53.698;10.078;2023-02-28T11:00:05;4.97;;;1.70;;
15486;SDS011;7845;53.698;10.078;2023-02-28T11:02:38;4.90;;;1.13;;
15486;SDS011;7845;53.698;10.078;2023-02-28T11:05:24;3.63;;;1.23;;
15486;SDS011;7845;53.698;10.078;2023-02-28T11:08:14;3.23;;;1.10;;
15486;SDS011;7845;53.698;10.078;2023-02-28T11:10:39;3.40;;;0.90;;
15486;SDS011;7845;53.698;10.078;2023-02-28T11:13:18;3.20;;;0.90;;
15486;SDS011;7845;53.698;10.078;2023-02-28T11:15:55;4.37;;;1.17;;
15486;SDS011;7845;53.698;10.078;2023-02-28T11:18:27;4.17;;;1.33;;
15486;SDS011;7845;53.698;10.078;2023-02-28T11:20:56;3.70;;;1.03;;
15486;SDS011;7845;53.698;10.078;2023-02-28T11:23:24;6.20;;;1.00;;
15486;SDS011;7845;53.698;10.078;2023-02-28T11:25:52;3.70;;;1.20;;
15486;SDS011;7845;53.698;10.078;2023-02-28T11:28:29;5.07;;;1.30;;
15486;SDS011;7845;53.698;10.078;2023-02-28T11:33:31;3.30;;;0.80;;
15486;SDS011;7845;53.698;10.078;2023-02-28T11:36:10;3.40;;;0.80;;
15486;SDS011;7845;53.698;10.078;2023-02-28T11:38:44;3.63;;;1.30;;
15486;SDS011;7845;53.698;10.078;2023-02-28T11:41:14;4.80;;;1.50;;
15486;SDS011;7845;53.698;10.078;2023-02-28T11:44:02;5.00;;;1.67;;
15486;SDS011;7845;53.698;10.078;2023-02-28T11:46:56;3.67;;;1.10;;
15486;SDS011;7845;53.698;10.078;2023-02-28T11:49:36;4.90;;;1.27;;
15486;SDS011;7845;53.698;10.078;2023-02-28T11:57:59;3.80;;;1.20;;
15486;SDS011;7845;53.698;10.078;2023-02-28T12:00:45;4.73;;;1.23;;
15486;SDS011;7845;53.698;10.078;2023-02-28T12:03:45;3.30;;;0.87;;
15486;SDS011;7845;53.698;10.078;2023-02-28T12:06:25;7.43;;;1.50;;
15486;SDS011;7845;53.698;10.078;2023-02-28T12:09:02;3.93;;;1.30;;
15486;SDS011;7845;53.698;10.078;2023-02-28T12:11:48;3.93;;;1.23;;
15486;SDS011;7845;53.698;10.078;2023-02-28T12:17:15;4.97;;;1.27;;
15486;SDS011;7845;53.698;10.078;2023-02-28T12:28:14;4.70;;;1.60;;
15486;SDS011;7845;53.698;10.078;2023-02-28T12:30:58;4.03;;;1.70;;
15486;SDS011;7845;53.698;10.078;2023-02-28T12:33:34;3.80;;;1.40;;
15486;SDS011;7845;53.698;10.078;2023-02-28T12:36:14;4.43;;;1.63;;
15486;SDS011;7845;53.698;10.078;2023-02-28T12:38:45;3.70;;;1.20;;
15486;SDS011;7845;53.698;10.078;2023-02-28T12:41:18;4.17;;;1.27;;
15486;SDS011;7845;53.698;10.078;2023-02-28T12:43:52;6.10;;;1.67;;
15486;SDS011;7845;53.698;10.078;2023-02-28T12:46:27;4.87;;;2.00;;
15486;SDS011;7845;53.698;10.078;2023-02-28T12:48:58;4.07;;;1.23;;
15486;SDS011;7845;53.698;10.078;2023-02-28T12:51:29;4.40;;;1.57;;
15486;SDS011;7845;53.698;10.078;2023-02-28T12:54:04;5.43;;;1.80;;
15486;SDS011;7845;53.698;10.078;2023-02-28T12:56:42;5.30;;;1.90;;
15486;SDS011;7845;53.698;10.078;2023-02-28T12:59:29;4.60;;;1.70;;
15486;SDS011;7845;53.698;10.078;2023-02-28T13:02:16;4.37;;;1.70;;
15486;SDS011;7845;53.698;10.078;2023-02-28T13:05:06;3.97;;;1.40;;
15486;SDS011;7845;53.698;10.078;2023-02-28T13:07:54;4.37;;;1.60;;
15486;SDS011;7845;53.698;10.078;2023-02-28T13:10:46;4.30;;;1.33;;
15486;SDS011;7845;53.698;10.078;2023-02-28T13:13:20;4.00;;;1.40;;
15486;SDS011;7845;53.698;10.078;2023-02-28T13:18:37;4.63;;;1.27;;
15486;SDS011;7845;53.698;10.078;2023-02-28T13:21:28;4.73;;;1.30;;
15486;SDS011;7845;53.698;10.078;2023-02-28T13:23:57;5.13;;;1.77;;
15486;SDS011;7845;53.698;10.078;2023-02-28T13:27:10;3.90;;;1.13;;
15486;SDS011;7845;53.698;10.078;2023-02-28T13:45:19;3.70;;;1.10;;
15486;SDS011;7845;53.698;10.078;2023-02-28T13:47:56;3.70;;;0.80;;
15486;SDS011;7845;53.698;10.078;2023-02-28T13:53:21;4.53;;;1.47;;
15486;SDS011;7845;53.698;10.078;2023-02-28T14:06:37;3.63;;;1.03;;
15486;SDS011;7845;53.698;10.078;2023-02-28T14:11:38;5.03;;;1.30;;
15486;SDS011;7845;53.698;10.078;2023-02-28T14:14:07;4.90;;;1.40;;
15486;SDS011;7845;53.698;10.078;2023-02-28T14:16:39;3.90;;;1.10;;
15486;SDS011;7845;53.698;10.078;2023-02-28T14:19:12;3.80;;;1.30;;
15486;SDS011;7845;53.698;10.078;2023-02-28T14:38:25;4.67;;;1.20;;
15486;SDS011;7845;53.698;10.078;2023-02-28T14:40:54;3.90;;;1.00;;
15486;SDS011;7845;53.698;10.078;2023-02-28T14:43:22;6.67;;;1.30;;
15486;SDS011;7845;53.698;10.078;2023-02-28T14:45:56;4.60;;;1.13;;
15486;SDS011;7845;53.698;10.078;2023-02-28T14:48:24;3.53;;;1.07;;
15486;SDS011;7845;53.698;10.078;2023-02-28T14:50:52;3.40;;;1.10;;
15486;SDS011;7845;53.698;10.078;2023-02-28T14:53:20;5.10;;;1.23;;
15486;SDS011;7845;53.698;10.078;2023-02-28T14:55:47;5.67;;;1.77;;
15486;SDS011;7845;53.698;10.078;2023-02-28T14:58:22;4.83;;;2.00;;
15486;SDS011;7845;53.698;10.078;2023-02-28T15:00:56;4.83;;;2.00;;
15486;SDS011;7845;53.698;10.078;2023-02-28T15:03:29;3.90;;;1.50;;
15486;SDS011;7845;53.698;10.078;2023-02-28T15:05:57;4.80;;;1.57;;
15486;SDS011;7845;53.698;10.078;2023-02-28T15:08:25;4.93;;;1.87;;
15486;SDS011;7845;53.698;10.078;2023-02-28T15:13:50;3.90;;;1.40;;
15486;SDS011;7845;53.698;10.078;2023-02-28T15:16:22;5.10;;;2.00;;
15486;SDS011;7845;53.698;10.078;2023-02-28T15:18:48;5.60;;;2.00;;
15486;SDS011;7845;53.698;10.078;2023-02-28T15:21:18;7.07;;;2.13;;
15486;SDS011;7845;53.698;10.078;2023-02-28T15:23:51;4.23;;;1.80;;
15486;SDS011;7845;53.698;10.078;2023-02-28T15:26:32;4.00;;;1.50;;
15486;SDS011;7845;53.698;10.078;2023-02-28T15:29:01;4.80;;;1.90;;
15486;SDS011;7845;53.698;10.078;2023-02-28T15:31:50;4.10;;;1.67;;
15486;SDS011;7845;53.698;10.078;2023-02-28T15:34:36;4.10;;;1.73;;
15486;SDS011;7845;53.698;10.078;2023-02-28T15:39:50;5.60;;;1.67;;
15486;SDS011;7845;53.698;10.078;2023-02-28T15:42:18;4.57;;;1.33;;
15486;SDS011;7845;53.698;10.078;2023-02-28T15:44:44;5.20;;;1.70;;
15486;SDS011;7845;53.698;10.078;2023-02-28T15:47:20;4.67;;;1.80;;
15486;SDS011;7845;53.698;10.078;2023-02-28T15:49:49;5.40;;;1.97;;
15486;SDS011;7845;53.698;10.078;2023-02-28T15:52:18;5.03;;;1.70;;
15486;SDS011;7845;53.698;10.078;2023-02-28T15:54:56;3.80;;;1.30;;
15486;SDS011;7845;53.698;10.078;2023-02-28T15:57:26;5.00;;;1.87;;
15486;SDS011;7845;53.698;10.078;2023-02-28T15:59:55;5.80;;;1.73;;
15486;SDS011;7845;53.698;10.078;2023-02-28T16:02:31;5.60;;;2.13;;
15486;SDS011;7845;53.698;10.078;2023-02-28T16:07:35;4.63;;;1.90;;
15486;SDS011;7845;53.698;10.078;2023-02-28T16:10:01;4.90;;;1.93;;
15486;SDS011;7845;53.698;10.078;2023-02-28T16:12:27;5.00;;;2.50;;
15486;SDS011;7845;53.698;10.078;2023-02-28T16:14:55;4.93;;;1.87;;
15486;SDS011;7845;53.698;10.078;2023-02-28T16:17:25;5.07;;;2.00;;
15486;SDS011;7845;53.698;10.078;2023-02-28T16:19:53;5.80;;;2.70;;
15486;SDS011;7845;53.698;10.078;2023-02-28T16:22:19;5.40;;;2.67;;
15486;SDS011;7845;53.698;10.078;2023-02-28T16:24:44;6.03;;;2.80;;
15486;SDS011;7845;53.698;10.078;2023-02-28T16:27:43;5.67;;;2.50;;
15486;SDS011;7845;53.698;10.078;2023-02-28T16:30:03;4.40;;;1.77;;
15486;SDS011;7845;53.698;10.078;2023-02-28T16:32:31;3.90;;;1.57;;
15486;SDS011;7845;53.698;10.078;2023-02-28T16:34:59;5.10;;;2.03;;
15486;SDS011;7845;53.698;10.078;2023-02-28T16:37:26;4.90;;;2.13;;
15486;SDS011;7845;53.698;10.078;2023-02-28T16:39:52;4.40;;;1.60;;
15486;SDS011;7845;53.698;10.078;2023-02-28T16:42:22;5.10;;;2.13;;
15486;SDS011;7845;53.698;10.078;2023-02-28T16:44:50;4.33;;;1.27;;
15486;SDS011;7845;53.698;10.078;2023-02-28T16:47:17;5.60;;;1.70;;
15486;SDS011;7845;53.698;10.078;2023-02-28T16:49:44;5.80;;;1.90;;
15486;SDS011;7845;53.698;10.078;2023-02-28T16:52:10;4.03;;;1.50;;
15486;SDS011;7845;53.698;10.078;2023-02-28T16:54:36;4.97;;;1.93;;
15486;SDS011;7845;53.698;10.078;2023-02-28T16:57:04;4.70;;;1.67;;
15486;SDS011;7845;53.698;10.078;2023-02-28T16:59:31;3.83;;;1.20;;
15486;SDS011;7845;53.698;10.078;2023-02-28T17:01:57;5.93;;;2.00;;
15486;SDS011;7845;53.698;10.078;2023-02-28T17:04:24;8.70;;;2.70;;
15486;SDS011;7845;53.698;10.078;2023-02-28T17:06:50;6.13;;;2.20;;